CST,Max TemperatureF,Mean TemperatureF,Min TemperatureF,Max Dew PointF,MeanDew PointF,Min DewpointF,Max Humidity, Mean Humidity, Min Humidity, Max Sea Level PressureIn, Mean Sea Level PressureIn, Min Sea Level PressureIn, Max VisibilityMiles, Mean VisibilityMiles, Min VisibilityMiles, Max Wind SpeedMPH, Mean Wind SpeedMPH, Max Gust SpeedMPH,PrecipitationIn, CloudCover, Events, WindDirDegrees
2012-11-1,54,42,29,25,21,14,78,50,22,29.99,29.96,29.91,10,10,10,15,6,22,0.00,1,,268
2012-11-2,63,51,38,38,31,25,79,53,27,30.05,29.97,29.92,10,10,10,17,6,24,0.00,2,,280
2012-11-3,73,54,34,54,41,30,93,63,32,30.12,30.03,29.95,10,9,2,18,4,24,0.07,3,Rain-Thunderstorm,205
2012-11-4,57,47,36,55,41,32,100,83,66,30.12,30.06,29.97,10,9,2,14,5,18,0.00,5,,325
2012-11-5,57,44,30,35,31,28,92,64,35,30.14,30.08,29.99,10,6,0,8,2,10,0.00,2,Fog,29
2012-11-6,46,44,41,43,40,37,93,85,76,30.01,29.96,29.91,10,8,2,10,2,15,0.27,8,Rain,226
2012-11-7,44,41,38,40,39,36,100,91,82,30.11,29.96,29.87,10,6,1,10,3,14,0.33,7,Rain,324
2012-11-8,55,43,31,37,35,30,100,71,41,30.25,30.18,30.10,10,4,0,10,3,13,0.01,2,Fog,6
2012-11-9,63,46,30,38,32,28,100,68,29,30.32,30.24,30.20,10,7,2,6,1,,0.00,0,,177
2012-11-10,69,55,40,38,33,23,79,48,17,30.34,30.28,30.23,10,10,10,10,4,15,0.00,0,,180
2012-11-11,65,58,50,49,41,33,72,58,43,30.36,30.26,30.17,10,10,10,20,10,33,0.00,0,,167
2012-11-12,61,46,30,56,47,28,94,88,69,30.42,30.22,30.13,10,6,2,16,11,32,0.63,7,Rain,255
2012-11-13,46,37,27,26,24,21,92,65,38,30.48,30.43,30.38,10,10,10,15,7,20,0.00,0,,31
2012-11-14,51,40,28,31,27,23,85,64,42,30.42,30.35,30.27,10,10,10,8,3,10,0.00,0,,42
2012-11-15,57,43,28,33,29,25,92,62,32,30.32,30.29,30.25,10,10,9,10,3,14,0.00,0,,346
2012-11-16,57,44,31,31,27,22,82,54,26,30.38,30.34,30.29,10,10,7,13,5,16,0.00,0,,34
2012-11-17,60,45,29,32,27,23,92,60,27,30.46,30.41,30.37,10,10,6,10,2,14,0.00,0,,45
2012-11-18,62,46,30,30,26,23,85,55,25,30.43,30.38,30.33,10,10,10,9,2,12,0.00,0,,36
2012-11-19,62,46,30,37,32,25,85,60,35,30.35,30.29,30.19,10,10,8,9,1,13,0.00,0,,343
2012-11-20,63,51,39,45,39,33,82,61,39,30.20,30.14,30.08,10,10,10,12,2,15,0.00,5,,293
2012-11-21,65,52,39,43,40,37,92,68,43,30.21,30.17,30.10,10,10,6,10,1,14,0.00,1,,10
2012-11-22,66,51,36,43,37,34,92,63,34,30.26,30.20,30.14,10,7,2,8,2,13,0.00,0,,177
2012-11-23,53,43,33,47,38,27,93,71,49,30.17,30.12,30.08,10,8,1,18,6,22,T,4,Rain,287
2012-11-24,39,31,22,27,20,17,81,63,44,30.24,30.19,30.15,10,10,10,14,6,21,0.00,1,,318
2012-11-25,54,38,21,20,17,7,92,54,15,30.17,30.11,30.03,10,10,10,13,4,21,0.00,0,,212
2012-11-26,59,46,34,45,32,19,96,61,28,30.19,30.14,30.10,10,8,2,8,3,,0.39,6,Rain,175
2012-11-27,46,39,32,45,39,29,100,93,79,30.31,30.20,30.09,9,4,0,13,5,16,0.09,8,Fog-Rain,4
2012-11-28,48,38,28,30,26,21,92,63,34,30.46,30.40,30.32,10,8,4,12,3,14,0.00,3,,355
2012-11-29,56,40,24,30,27,22,92,62,32,30.43,30.36,30.30,10,9,6,10,2,15,0.00,0,,170
2012-11-30,59,49,39,44,38,28,89,70,51,30.36,30.30,30.22,10,10,7,14,4,22,0.00,2,,196